Time;durP1;ratioP1;P1;durP2;ratioP2;P2;SDS_P1;SDS_P2;PMS_P1;PMS_P2;Temp;Humidity;BMP_temperature;BMP_pressure;BME280_temperature;BME280_humidity;BME280_pressure;Samples;Min_cycle;Max_cycle;Signal;HPM_P1;HPM_P2
2021/04/07 00:00:22;;;;;;;12.57;2.15;;;;;;;;;;5067633;28;20033;-59
2021/04/07 00:02:48;;;;;;;13.93;2.03;;;;;;;;;;5065044;28;20942;-57
2021/04/07 00:05:15;;;;;;;12.10;2.00;;;;;;;;;;5068386;28;20043;-60
2021/04/07 00:07:44;;;;;;;17.80;2.05;;;;;;;;;;5050886;28;20150;-60
2021/04/07 00:10:12;;;;;;;13.25;2.05;;;;;;;;;;5068096;28;20036;-60
2021/04/07 00:12:41;;;;;;;12.40;2.03;;;;;;;;;;5065161;28;21355;-58
2021/04/07 00:15:15;;;;;;;12.63;2.00;;;;;;;;;;5068974;28;20040;-60
2021/04/07 00:17:44;;;;;;;11.57;2.38;;;;;;;;;;5067835;28;20044;-57
2021/04/07 00:20:11;;;;;;;9.45;2.20;;;;;;;;;;5068460;28;20685;-59
2021/04/07 00:22:38;;;;;;;16.17;2.75;;;;;;;;;;5057276;28;20879;-58
2021/04/07 00:25:04;;;;;;;10.85;2.28;;;;;;;;;;5024663;28;21563;-61
2021/04/07 00:27:31;;;;;;;9.43;2.10;;;;;;;;;;5004644;28;20047;-59
2021/04/07 00:29:57;;;;;;;15.20;1.80;;;;;;;;;;5005917;28;20038;-58
2021/04/07 00:32:23;;;;;;;17.67;2.97;;;;;;;;;;5003215;28;20041;-56
2021/04/07 00:34:49;;;;;;;16.83;4.03;;;;;;;;;;4992044;28;20062;-59
2021/04/07 00:37:15;;;;;;;17.00;2.45;;;;;;;;;;4992091;28;20648;-58
2021/04/07 00:40:08;;;;;;;19.58;2.28;;;;;;;;;;4989466;28;20613;-60
2021/04/07 00:42:34;;;;;;;21.77;4.60;;;;;;;;;;4971352;28;20610;-57
2021/04/07 00:45:00;;;;;;;18.73;3.05;;;;;;;;;;4987968;28;20529;-60
2021/04/07 00:47:26;;;;;;;17.90;3.10;;;;;;;;;;4990993;28;20041;-58
2021/04/07 00:49:52;;;;;;;15.20;3.05;;;;;;;;;;4993120;28;20478;-56
2021/04/07 00:52:18;;;;;;;12.90;2.45;;;;;;;;;;4983030;28;20141;-58
2021/04/07 00:54:44;;;;;;;18.90;2.83;;;;;;;;;;4979644;28;20046;-58
2021/04/07 00:57:10;;;;;;;14.02;2.78;;;;;;;;;;4986608;28;20034;-56
2021/04/07 00:59:37;;;;;;;13.98;2.40;;;;;;;;;;4982340;28;20053;-58
2021/04/07 01:02:03;;;;;;;18.40;2.78;;;;;;;;;;4989745;28;20229;-59
2021/04/07 01:04:29;;;;;;;12.95;2.65;;;;;;;;;;5007121;28;20034;-57
2021/04/07 01:06:56;;;;;;;11.10;2.25;;;;;;;;;;5018431;28;20478;-60
2021/04/07 01:09:22;;;;;;;21.50;2.80;;;;;;;;;;5034376;28;20033;-58
2021/04/07 01:11:47;;;;;;;21.73;2.50;;;;;;;;;;5033228;28;20137;-55
2021/04/07 01:14:13;;;;;;;12.40;2.30;;;;;;;;;;5032564;28;20044;-56
2021/04/07 01:16:41;;;;;;;17.45;2.42;;;;;;;;;;5033758;28;20037;-57
2021/04/07 01:19:07;;;;;;;14.13;2.03;;;;;;;;;;5034450;28;20151;-60
2021/04/07 01:21:33;;;;;;;16.10;2.67;;;;;;;;;;5050948;28;20062;-58
2021/04/07 01:23:59;;;;;;;11.45;2.30;;;;;;;;;;5029202;28;20034;-59
2021/04/07 01:26:34;;;;;;;15.82;2.22;;;;;;;;;;5042388;28;20045;-55
2021/04/07 01:29:00;;;;;;;23.88;3.10;;;;;;;;;;5052552;28;20466;-56
2021/04/07 01:31:26;;;;;;;19.45;2.88;;;;;;;;;;5052617;28;20239;-57
2021/04/07 01:33:52;;;;;;;11.75;1.98;;;;;;;;;;5048879;28;20071;-54
2021/04/07 01:36:22;;;;;;;20.45;2.78;;;;;;;;;;5016786;28;20038;-55
2021/04/07 01:38:48;;;;;;;17.13;2.45;;;;;;;;;;5030449;28;20060;-56
2021/04/07 01:41:15;;;;;;;12.52;2.38;;;;;;;;;;5032325;28;20057;-54
2021/04/07 01:43:41;;;;;;;16.30;2.63;;;;;;;;;;5010803;28;20040;-57
2021/04/07 01:46:07;;;;;;;19.60;3.10;;;;;;;;;;5032685;28;20099;-56
2021/04/07 01:48:33;;;;;;;11.63;2.40;;;;;;;;;;5027499;28;20128;-59
2021/04/07 01:50:59;;;;;;;12.80;2.60;;;;;;;;;;5023150;28;20144;-58
2021/04/07 01:53:26;;;;;;;16.27;3.50;;;;;;;;;;5028439;28;20659;-57
2021/04/07 01:55:52;;;;;;;16.48;2.65;;;;;;;;;;5052488;28;20689;-57
2021/04/07 01:58:18;;;;;;;16.13;3.05;;;;;;;;;;5047913;28;20051;-56
2021/04/07 02:00:44;;;;;;;14.70;2.67;;;;;;;;;;5034331;28;20185;-57
2021/04/07 02:03:10;;;;;;;18.15;3.10;;;;;;;;;;5028348;28;20513;-58
2021/04/07 02:05:36;;;;;;;13.80;2.58;;;;;;;;;;5031529;28;20120;-57
2021/04/07 02:08:02;;;;;;;17.13;2.20;;;;;;;;;;5032786;28;20041;-58
2021/04/07 02:10:27;;;;;;;15.05;3.20;;;;;;;;;;5039224;28;20064;-57
2021/04/07 02:12:54;;;;;;;16.67;2.60;;;;;;;;;;5043698;28;20155;-58
2021/04/07 02:15:21;;;;;;;14.55;3.15;;;;;;;;;;5032332;28;20596;-58
2021/04/07 02:17:47;;;;;;;15.98;2.72;;;;;;;;;;5032446;28;20040;-57
2021/04/07 02:20:14;;;;;;;13.13;3.45;;;;;;;;;;5034288;28;20037;-55
2021/04/07 02:22:39;;;;;;;15.02;2.03;;;;;;;;;;5043643;28;20548;-59
2021/04/07 02:25:06;;;;;;;13.68;2.50;;;;;;;;;;5053605;28;20047;-58
2021/04/07 02:27:34;;;;;;;12.55;2.88;;;;;;;;;;5051700;28;20033;-58
2021/04/07 02:30:04;;;;;;;16.33;2.70;;;;;;;;;;5047007;28;20033;-58
2021/04/07 02:32:30;;;;;;;19.63;2.40;;;;;;;;;;5033161;28;20436;-58
2021/04/07 02:34:57;;;;;;;15.65;2.47;;;;;;;;;;5041423;28;20490;-58
2021/04/07 02:37:23;;;;;;;18.13;2.92;;;;;;;;;;5032396;28;20044;-57
2021/04/07 02:39:49;;;;;;;14.13;2.45;;;;;;;;;;5032374;28;20086;-58
2021/04/07 02:42:16;;;;;;;18.88;2.67;;;;;;;;;;5032061;28;20047;-58
2021/04/07 02:44:42;;;;;;;17.42;2.35;;;;;;;;;;5042400;28;20603;-57
2021/04/07 02:47:08;;;;;;;19.80;3.42;;;;;;;;;;5051533;28;20318;-56
2021/04/07 02:49:34;;;;;;;14.90;3.22;;;;;;;;;;5049876;28;20037;-54
2021/04/07 02:52:00;;;;;;;12.52;2.60;;;;;;;;;;5052330;28;20051;-59
2021/04/07 02:54:26;;;;;;;16.67;2.22;;;;;;;;;;5052179;28;21024;-54
2021/04/07 02:56:52;;;;;;;13.40;2.40;;;;;;;;;;5035896;28;20153;-57
2021/04/07 02:59:18;;;;;;;13.90;2.53;;;;;;;;;;5052012;28;20037;-58
2021/04/07 03:01:44;;;;;;;14.18;2.63;;;;;;;;;;5049100;28;20493;-57
2021/04/07 03:04:10;;;;;;;17.25;2.58;;;;;;;;;;5054833;28;20052;-58
2021/04/07 03:06:36;;;;;;;10.55;2.30;;;;;;;;;;5035284;28;20055;-58
2021/04/07 03:09:03;;;;;;;16.20;2.60;;;;;;;;;;5056343;28;20035;-58
2021/04/07 03:11:28;;;;;;;17.30;2.63;;;;;;;;;;5052514;28;20377;-57
2021/04/07 03:13:54;;;;;;;18.10;2.80;;;;;;;;;;5053279;28;20045;-58
2021/04/07 03:16:20;;;;;;;15.73;2.85;;;;;;;;;;5050446;28;20037;-57
2021/04/07 03:18:46;;;;;;;14.52;2.70;;;;;;;;;;5054168;28;20110;-57
2021/04/07 03:21:12;;;;;;;13.90;2.22;;;;;;;;;;5054060;28;20058;-57
2021/04/07 03:23:38;;;;;;;15.98;3.17;;;;;;;;;;5051498;28;20037;-58
2021/04/07 03:26:04;;;;;;;23.40;2.58;;;;;;;;;;5052193;28;20135;-57
2021/04/07 03:28:30;;;;;;;16.75;2.72;;;;;;;;;;5052815;28;20489;-57
2021/04/07 03:30:56;;;;;;;21.27;2.67;;;;;;;;;;5029025;28;20052;-55
2021/04/07 03:33:22;;;;;;;13.07;2.35;;;;;;;;;;5054645;28;20040;-56
2021/04/07 03:35:49;;;;;;;14.38;2.40;;;;;;;;;;5053328;28;20040;-57
2021/04/07 03:38:15;;;;;;;10.38;2.20;;;;;;;;;;5032702;28;20043;-57
2021/04/07 03:40:41;;;;;;;15.85;2.60;;;;;;;;;;5049216;28;20036;-57
2021/04/07 03:43:11;;;;;;;17.25;2.97;;;;;;;;;;5052772;28;20149;-58
2021/04/07 03:45:37;;;;;;;21.50;2.97;;;;;;;;;;5053873;28;20044;-58
2021/04/07 03:48:06;;;;;;;16.65;3.08;;;;;;;;;;5053514;28;20079;-58
2021/04/07 03:50:32;;;;;;;11.77;2.45;;;;;;;;;;5052853;28;20135;-57
2021/04/07 03:52:58;;;;;;;19.80;3.00;;;;;;;;;;5049628;28;20037;-57
2021/04/07 03:55:30;;;;;;;14.95;2.67;;;;;;;;;;5054855;28;20040;-57
2021/04/07 03:57:55;;;;;;;15.65;2.22;;;;;;;;;;5055630;28;20059;-54
2021/04/07 04:00:22;;;;;;;13.40;1.88;;;;;;;;;;5050444;28;20037;-57
2021/04/07 04:02:48;;;;;;;12.98;2.50;;;;;;;;;;5054600;28;20049;-56
2021/04/07 04:05:14;;;;;;;14.52;2.33;;;;;;;;;;5033251;28;20033;-55
2021/04/07 04:07:39;;;;;;;16.88;2.67;;;;;;;;;;5036284;28;20037;-54
2021/04/07 04:10:06;;;;;;;13.73;2.70;;;;;;;;;;5036675;28;20493;-57
2021/04/07 04:12:31;;;;;;;11.63;1.92;;;;;;;;;;5041368;28;20041;-55
2021/04/07 04:14:57;;;;;;;17.15;2.63;;;;;;;;;;5062043;28;20175;-56
2021/04/07 04:17:25;;;;;;;12.98;2.05;;;;;;;;;;5048185;28;20040;-57
2021/04/07 04:19:51;;;;;;;13.73;2.60;;;;;;;;;;5059697;28;20051;-55
2021/04/07 04:22:17;;;;;;;11.98;2.22;;;;;;;;;;5062269;28;20620;-59
2021/04/07 04:24:43;;;;;;;14.80;2.38;;;;;;;;;;5039769;28;20513;-57
2021/04/07 04:27:09;;;;;;;15.10;2.50;;;;;;;;;;5039276;28;20606;-57
2021/04/07 04:29:36;;;;;;;12.38;3.15;;;;;;;;;;5038317;28;20069;-57
2021/04/07 04:32:02;;;;;;;10.25;1.65;;;;;;;;;;5038892;28;20041;-58
2021/04/07 04:34:28;;;;;;;9.52;1.98;;;;;;;;;;5038580;28;20696;-57
2021/04/07 04:36:54;;;;;;;15.88;2.25;;;;;;;;;;5056461;28;20040;-54
2021/04/07 04:39:20;;;;;;;14.95;1.92;;;;;;;;;;5054947;28;21427;-56
2021/04/07 04:41:46;;;;;;;9.38;2.13;;;;;;;;;;5057232;28;20441;-56
2021/04/07 04:44:12;;;;;;;14.80;2.38;;;;;;;;;;5061041;28;20638;-56
2021/04/07 04:46:38;;;;;;;12.93;1.92;;;;;;;;;;5063255;28;20037;-56
2021/04/07 04:49:04;;;;;;;13.80;2.30;;;;;;;;;;5046960;28;20048;-56
2021/04/07 04:51:30;;;;;;;10.40;2.00;;;;;;;;;;5039265;28;20032;-55
2021/04/07 04:53:56;;;;;;;9.52;2.00;;;;;;;;;;5040069;28;20439;-56
2021/04/07 04:56:26;;;;;;;13.95;1.95;;;;;;;;;;5042337;28;20160;-56
2021/04/07 04:58:52;;;;;;;14.85;1.90;;;;;;;;;;5060351;28;20128;-57
2021/04/07 05:01:18;;;;;;;12.27;1.90;;;;;;;;;;5040466;28;20144;-56
2021/04/07 05:03:44;;;;;;;13.55;2.45;;;;;;;;;;5040881;28;20128;-55
2021/04/07 05:06:09;;;;;;;12.07;2.00;;;;;;;;;;5050299;28;20094;-55
2021/04/07 05:08:36;;;;;;;13.52;2.13;;;;;;;;;;5060390;28;20043;-56
2021/04/07 05:11:01;;;;;;;14.52;2.78;;;;;;;;;;5061675;28;21134;-56
2021/04/07 05:13:29;;;;;;;13.48;2.10;;;;;;;;;;5040993;28;20040;-56
2021/04/07 05:15:55;;;;;;;8.23;1.80;;;;;;;;;;5024165;28;20037;-53
2021/04/07 05:18:22;;;;;;;14.00;2.45;;;;;;;;;;5036006;28;20041;-55
2021/04/07 05:20:48;;;;;;;11.95;2.35;;;;;;;;;;5049373;28;20029;-57
2021/04/07 05:23:14;;;;;;;12.27;2.22;;;;;;;;;;5041946;28;20057;-56
2021/04/07 05:25:40;;;;;;;16.00;3.20;;;;;;;;;;5038858;28;20049;-57
2021/04/07 05:28:06;;;;;;;11.30;1.85;;;;;;;;;;5020959;28;20061;-57
2021/04/07 05:33:23;;;;;;;15.27;2.08;;;;;;;;;;5018844;28;20048;-57
2021/04/07 05:35:49;;;;;;;16.33;2.50;;;;;;;;;;5045535;28;20115;-56
2021/04/07 05:38:17;;;;;;;15.15;2.20;;;;;;;;;;5055814;28;20036;-55
2021/04/07 05:40:43;;;;;;;11.48;2.05;;;;;;;;;;5028143;28;20033;-54
2021/04/07 05:43:09;;;;;;;14.80;2.53;;;;;;;;;;5037429;28;20040;-57
2021/04/07 05:45:39;;;;;;;19.52;2.17;;;;;;;;;;5027544;28;20029;-56
2021/04/07 05:48:06;;;;;;;16.88;2.00;;;;;;;;;;5049157;28;20049;-56
2021/04/07 05:50:32;;;;;;;20.92;2.53;;;;;;;;;;5034077;28;20043;-57
2021/04/07 05:52:58;;;;;;;18.30;2.72;;;;;;;;;;5036459;28;20895;-56
2021/04/07 05:55:23;;;;;;;18.38;2.25;;;;;;;;;;5035570;28;20041;-56
2021/04/07 05:57:56;;;;;;;10.20;2.10;;;;;;;;;;5037007;28;20045;-56
2021/04/07 06:00:23;;;;;;;11.65;2.40;;;;;;;;;;5036460;28;20076;-56
2021/04/07 06:02:48;;;;;;;13.77;2.72;;;;;;;;;;5037532;28;20064;-53
2021/04/07 06:05:15;;;;;;;14.98;2.17;;;;;;;;;;5036572;28;20029;-57
2021/04/07 06:07:41;;;;;;;16.30;2.30;;;;;;;;;;5033653;28;20040;-55
2021/04/07 06:10:07;;;;;;;13.02;2.25;;;;;;;;;;5035705;28;20044;-56
2021/04/07 06:12:32;;;;;;;14.85;2.63;;;;;;;;;;5037661;28;20041;-57
2021/04/07 06:14:58;;;;;;;11.95;2.53;;;;;;;;;;5042378;28;20041;-56
2021/04/07 06:17:24;;;;;;;11.65;1.83;;;;;;;;;;5050390;28;20124;-57
2021/04/07 06:19:50;;;;;;;17.08;3.58;;;;;;;;;;5052000;28;20535;-57
2021/04/07 06:22:16;;;;;;;17.92;2.75;;;;;;;;;;5045093;28;20510;-56
2021/04/07 06:24:42;;;;;;;12.68;2.65;;;;;;;;;;5053686;28;20617;-57
2021/04/07 06:27:17;;;;;;;13.40;2.42;;;;;;;;;;5053276;28;20051;-57
2021/04/07 06:29:44;;;;;;;13.48;2.58;;;;;;;;;;5042701;28;20143;-57
2021/04/07 06:32:12;;;;;;;12.20;2.22;;;;;;;;;;5049629;28;20056;-59
2021/04/07 06:34:38;;;;;;;14.88;2.63;;;;;;;;;;5051377;28;20429;-57
2021/04/07 06:37:04;;;;;;;16.15;2.28;;;;;;;;;;5053646;28;20048;-56
2021/04/07 06:39:30;;;;;;;13.70;2.55;;;;;;;;;;5032927;28;20049;-59
2021/04/07 06:41:56;;;;;;;14.02;2.75;;;;;;;;;;5030408;28;20044;-57
2021/04/07 06:44:22;;;;;;;21.08;2.35;;;;;;;;;;5033164;28;20512;-59
2021/04/07 06:46:49;;;;;;;12.27;2.58;;;;;;;;;;5036675;28;20056;-58
2021/04/07 06:49:15;;;;;;;14.07;3.33;;;;;;;;;;5036269;28;20083;-58
2021/04/07 06:51:41;;;;;;;13.77;2.22;;;;;;;;;;5029144;28;20051;-59
2021/04/07 06:54:07;;;;;;;17.13;2.65;;;;;;;;;;5030460;28;20041;-58
2021/04/07 06:56:35;;;;;;;16.92;3.95;;;;;;;;;;5029647;28;20032;-58
2021/04/07 06:59:01;;;;;;;18.42;2.85;;;;;;;;;;5031975;28;20048;-58
2021/04/07 07:01:27;;;;;;;15.23;2.95;;;;;;;;;;5030672;28;20049;-58
2021/04/07 07:03:53;;;;;;;20.88;2.78;;;;;;;;;;5009561;28;20203;-59
2021/04/07 07:06:19;;;;;;;20.17;3.13;;;;;;;;;;5031417;28;20070;-55
2021/04/07 07:08:45;;;;;;;19.70;2.63;;;;;;;;;;5030948;28;20036;-57
2021/04/07 07:11:10;;;;;;;18.98;2.65;;;;;;;;;;5030692;28;20410;-57
2021/04/07 07:13:36;;;;;;;16.77;2.97;;;;;;;;;;5032232;28;20037;-57
2021/04/07 07:16:02;;;;;;;17.40;2.60;;;;;;;;;;5034625;28;20588;-57
2021/04/07 07:18:28;;;;;;;8.30;2.60;;;;;;;;;;5032561;28;20079;-58
2021/04/07 07:20:55;;;;;;;8.43;2.40;;;;;;;;;;5031205;28;20048;-59
2021/04/07 07:23:22;;;;;;;12.52;2.20;;;;;;;;;;5032526;28;20074;-59
2021/04/07 07:26:14;;;;;;;15.82;2.78;;;;;;;;;;5039777;28;20037;-59
2021/04/07 07:28:49;;;;;;;12.27;2.65;;;;;;;;;;5029992;28;20064;-58
2021/04/07 07:31:19;;;;;;;14.82;3.17;;;;;;;;;;5033535;28;20060;-58
2021/04/07 07:33:45;;;;;;;17.05;3.13;;;;;;;;;;5053761;28;20052;-55
2021/04/07 07:36:12;;;;;;;13.95;2.88;;;;;;;;;;5054790;28;20599;-53
2021/04/07 07:38:43;;;;;;;15.23;2.95;;;;;;;;;;5051897;28;20255;-57
2021/04/07 07:41:09;;;;;;;13.70;2.90;;;;;;;;;;5052871;28;20037;-57
2021/04/07 07:43:36;;;;;;;15.95;3.40;;;;;;;;;;5053315;28;20848;-56
2021/04/07 07:46:12;;;;;;;22.05;3.10;;;;;;;;;;5039901;28;20456;-56
2021/04/07 07:48:38;;;;;;;15.30;2.90;;;;;;;;;;5048610;28;20037;-57
2021/04/07 07:51:14;;;;;;;15.57;3.00;;;;;;;;;;5038891;28;20037;-56
2021/04/07 07:53:45;;;;;;;14.00;3.17;;;;;;;;;;5048764;28;20045;-58
2021/04/07 07:56:11;;;;;;;15.63;3.05;;;;;;;;;;5060192;28;20905;-57
2021/04/07 07:58:41;;;;;;;16.20;3.03;;;;;;;;;;5057426;28;20709;-58
2021/04/07 08:01:07;;;;;;;14.55;2.97;;;;;;;;;;5056844;28;20037;-58
2021/04/07 08:03:33;;;;;;;11.75;3.45;;;;;;;;;;5036644;28;20053;-56
2021/04/07 08:06:00;;;;;;;12.90;3.20;;;;;;;;;;5035224;28;20458;-55
2021/04/07 08:08:27;;;;;;;22.40;3.13;;;;;;;;;;5036165;28;20047;-57
2021/04/07 08:10:56;;;;;;;14.90;2.85;;;;;;;;;;5035442;28;20045;-58
2021/04/07 08:13:24;;;;;;;15.50;3.25;;;;;;;;;;5035493;28;20057;-57
2021/04/07 08:15:50;;;;;;;25.20;3.35;;;;;;;;;;5036635;28;20037;-57
2021/04/07 08:18:16;;;;;;;20.95;3.78;;;;;;;;;;5037192;28;20654;-58
2021/04/07 08:20:43;;;;;;;15.18;3.28;;;;;;;;;;5043255;28;20041;-56
2021/04/07 08:23:11;;;;;;;20.23;3.20;;;;;;;;;;5056419;28;20615;-57
2021/04/07 08:25:37;;;;;;;16.85;3.65;;;;;;;;;;5035482;28;20489;-57
2021/04/07 08:28:04;;;;;;;17.42;3.17;;;;;;;;;;5055836;28;20064;-58
2021/04/07 08:30:30;;;;;;;18.88;3.35;;;;;;;;;;5055385;28;20037;-58
2021/04/07 08:32:56;;;;;;;11.18;2.30;;;;;;;;;;5057454;28;20036;-57
2021/04/07 08:35:24;;;;;;;15.48;3.13;;;;;;;;;;5054665;28;20562;-58
2021/04/07 08:37:59;;;;;;;15.60;4.47;;;;;;;;;;5052632;28;20092;-58
2021/04/07 08:40:36;;;;;;;15.98;3.03;;;;;;;;;;5041929;28;20244;-58
2021/04/07 08:43:03;;;;;;;13.98;3.17;;;;;;;;;;5041507;28;20067;-57
2021/04/07 08:45:35;;;;;;;15.13;2.30;;;;;;;;;;5036377;28;20612;-59
2021/04/07 08:48:06;;;;;;;13.20;2.47;;;;;;;;;;5036108;28;20572;-58
2021/04/07 08:50:32;;;;;;;12.98;4.32;;;;;;;;;;5036990;28;20587;-57
2021/04/07 08:52:59;;;;;;;12.10;2.60;;;;;;;;;;5058739;28;20036;-55
2021/04/07 08:55:25;;;;;;;17.60;2.90;;;;;;;;;;5039416;28;20043;-56
2021/04/07 08:58:00;;;;;;;12.57;2.75;;;;;;;;;;5038775;28;20029;-57
2021/04/07 09:00:29;;;;;;;16.40;3.60;;;;;;;;;;5039453;28;20049;-58
2021/04/07 09:02:56;;;;;;;23.15;4.15;;;;;;;;;;5040806;28;20051;-57
2021/04/07 09:05:32;;;;;;;13.25;2.95;;;;;;;;;;5047264;28;20223;-58
2021/04/07 09:07:58;;;;;;;20.02;3.08;;;;;;;;;;5034761;28;20154;-57
2021/04/07 09:10:24;;;;;;;28.25;2.80;;;;;;;;;;5035650;28;20132;-58
2021/04/07 09:12:51;;;;;;;12.88;2.85;;;;;;;;;;5034933;28;20052;-55
2021/04/07 09:15:20;;;;;;;11.48;2.80;;;;;;;;;;5036030;28;20029;-56
2021/04/07 09:17:46;;;;;;;21.15;2.92;;;;;;;;;;5055259;28;20044;-56
2021/04/07 09:20:31;;;;;;;14.25;2.50;;;;;;;;;;5055493;28;20509;-56
2021/04/07 09:23:05;;;;;;;17.00;2.65;;;;;;;;;;5055020;28;20044;-57
2021/04/07 09:25:31;;;;;;;14.50;3.10;;;;;;;;;;5055939;28;20032;-58
2021/04/07 09:28:04;;;;;;;17.75;2.95;;;;;;;;;;5056143;28;20045;-58
2021/04/07 09:30:47;;;;;;;15.68;3.15;;;;;;;;;;5033939;28;20051;-57
2021/04/07 09:33:17;;;;;;;13.98;3.38;;;;;;;;;;5044483;28;20053;-58
2021/04/07 09:38:21;;;;;;;13.32;2.85;;;;;;;;;;5193852;23;20131;-58
2021/04/07 09:40:47;;;;;;;16.35;2.90;;;;;;;;;;4974889;23;20813;-55
2021/04/07 09:43:13;;;;;;;11.68;2.40;;;;;;;;;;4966971;28;20879;-53
2021/04/07 09:45:39;;;;;;;13.65;2.92;;;;;;;;;;4983813;28;20041;-54
2021/04/07 09:48:05;;;;;;;14.23;3.10;;;;;;;;;;4982508;28;20042;-55
2021/04/07 09:50:32;;;;;;;15.95;3.72;;;;;;;;;;4983708;28;20505;-57
2021/04/07 09:52:58;;;;;;;14.00;2.58;;;;;;;;;;5003992;28;20154;-56
2021/04/07 09:55:24;;;;;;;14.80;3.63;;;;;;;;;;4985488;28;20478;-56
2021/04/07 09:58:00;;;;;;;12.82;2.95;;;;;;;;;;4985331;28;20204;-57
2021/04/07 10:00:33;;;;;;;10.30;2.25;;;;;;;;;;4996577;28;20042;-55
2021/04/07 10:03:01;;;;;;;13.82;3.13;;;;;;;;;;4998984;28;20155;-54
2021/04/07 10:05:28;;;;;;;16.58;2.58;;;;;;;;;;4997169;28;20041;-56
2021/04/07 10:07:54;;;;;;;14.45;2.30;;;;;;;;;;4998695;28;20044;-56
2021/04/07 10:10:22;;;;;;;11.15;2.40;;;;;;;;;;4998005;28;20041;-55
2021/04/07 10:12:48;;;;;;;8.75;2.10;;;;;;;;;;4998369;28;20038;-57
2021/04/07 10:15:17;;;;;;;15.80;2.58;;;;;;;;;;4998815;28;20516;-53
2021/04/07 10:17:43;;;;;;;15.40;3.72;;;;;;;;;;4998601;28;20049;-58
2021/04/07 10:20:13;;;;;;;13.93;2.22;;;;;;;;;;4998595;28;20516;-53
2021/04/07 10:22:40;;;;;;;15.60;2.30;;;;;;;;;;4997971;28;20084;-53
2021/04/07 10:25:16;;;;;;;10.85;1.67;;;;;;;;;;4997842;28;20113;-53
2021/04/07 10:27:43;;;;;;;12.48;2.05;;;;;;;;;;4998155;28;20428;-56
2021/04/07 10:30:13;;;;;;;12.35;2.00;;;;;;;;;;4996734;28;20060;-56
2021/04/07 10:32:47;;;;;;;14.93;2.33;;;;;;;;;;4998290;28;20048;-53
2021/04/07 10:35:12;;;;;;;;;;;;;;;;;;4999685;28;20060;-57
2021/04/07 10:37:38;;;;;;;15.13;1.98;;;;;;;;;;4999345;28;19921;-57
2021/04/07 10:40:04;;;;;;;13.02;2.15;;;;;;;;;;4996855;28;20135;-54
2021/04/07 10:42:33;;;;;;;11.57;1.83;;;;;;;;;;4997365;28;20158;-55
2021/04/07 10:45:00;;;;;;;12.88;1.95;;;;;;;;;;4996757;28;20402;-55
2021/04/07 10:47:26;;;;;;;12.57;2.17;;;;;;;;;;4997578;28;20037;-57
2021/04/07 10:49:55;;;;;;;11.15;3.05;;;;;;;;;;4998585;28;20042;-52
2021/04/07 10:52:32;;;;;;;13.55;2.20;;;;;;;;;;4997573;28;20045;-53
2021/04/07 10:54:58;;;;;;;10.40;1.60;;;;;;;;;;4999853;28;20045;-55
2021/04/07 10:57:34;;;;;;;11.48;2.15;;;;;;;;;;4995327;28;20132;-57
2021/04/07 11:00:04;;;;;;;10.18;2.20;;;;;;;;;;4999548;28;20041;-56
2021/04/07 11:02:39;;;;;;;12.20;2.63;;;;;;;;;;4998650;28;20053;-57
2021/04/07 11:05:19;;;;;;;18.77;6.35;;;;;;;;;;4999086;28;20037;-52
2021/04/07 11:07:45;;;;;;;18.95;5.50;;;;;;;;;;4993961;28;20304;-54
2021/04/07 11:10:13;;;;;;;13.13;3.15;;;;;;;;;;4997780;28;20384;-55
2021/04/07 11:12:39;;;;;;;19.38;4.75;;;;;;;;;;4998426;28;20267;-53
2021/04/07 11:15:08;;;;;;;17.00;3.70;;;;;;;;;;4997378;28;20042;-52
2021/04/07 11:17:34;;;;;;;12.77;2.55;;;;;;;;;;4996311;28;20343;-54
2021/04/07 11:20:00;;;;;;;23.60;3.42;;;;;;;;;;4999642;28;20037;-55
2021/04/07 11:22:25;;;;;;;20.00;4.32;;;;;;;;;;4997885;28;20098;-56
2021/04/07 11:24:53;;;;;;;14.43;3.28;;;;;;;;;;4997957;28;20045;-54
2021/04/07 11:27:18;;;;;;;12.57;4.00;;;;;;;;;;4997947;28;20480;-57
2021/04/07 11:29:44;;;;;;;22.67;4.85;;;;;;;;;;4997667;28;20042;-53
2021/04/07 11:32:11;;;;;;;15.93;2.58;;;;;;;;;;4999446;28;20044;-55
2021/04/07 11:34:48;;;;;;;15.75;2.80;;;;;;;;;;4996248;28;20072;-54
2021/04/07 11:37:23;;;;;;;24.05;3.88;;;;;;;;;;4998906;28;20041;-56
2021/04/07 11:42:22;;;;;;;12.55;2.47;;;;;;;;;;4998838;28;20046;-55
2021/04/07 11:44:48;;;;;;;10.20;2.08;;;;;;;;;;4997156;28;20077;-54
2021/04/07 11:47:14;;;;;;;10.30;2.70;;;;;;;;;;4998432;28;20037;-56
2021/04/07 11:49:39;;;;;;;13.75;2.25;;;;;;;;;;4999359;28;20200;-54
2021/04/07 11:52:06;;;;;;;11.88;2.42;;;;;;;;;;4999127;28;20458;-55
2021/04/07 11:54:32;;;;;;;12.93;2.53;;;;;;;;;;4998927;28;20037;-55
2021/04/07 11:56:58;;;;;;;15.15;3.05;;;;;;;;;;4999005;28;20493;-57
2021/04/07 11:59:24;;;;;;;20.10;3.42;;;;;;;;;;4996816;28;20052;-55
2021/04/07 12:01:51;;;;;;;12.68;2.40;;;;;;;;;;4997847;28;20667;-52
2021/04/07 12:04:19;;;;;;;9.10;2.35;;;;;;;;;;4998495;28;20049;-57
2021/04/07 12:06:45;;;;;;;14.00;2.80;;;;;;;;;;4995901;28;20087;-55
2021/04/07 12:09:11;;;;;;;10.77;2.33;;;;;;;;;;4998392;28;20038;-56
2021/04/07 12:11:37;;;;;;;21.90;3.30;;;;;;;;;;4995555;28;20097;-57
2021/04/07 12:14:03;;;;;;;19.00;3.17;;;;;;;;;;4999550;28;20148;-55
2021/04/07 12:16:29;;;;;;;18.33;3.28;;;;;;;;;;4995368;28;20666;-55
2021/04/07 12:18:55;;;;;;;12.70;3.03;;;;;;;;;;4999009;28;20046;-53
2021/04/07 12:21:21;;;;;;;18.42;3.05;;;;;;;;;;4991672;28;20403;-53
2021/04/07 12:23:48;;;;;;;15.98;3.13;;;;;;;;;;5001574;28;20064;-57
2021/04/07 12:26:15;;;;;;;10.75;2.72;;;;;;;;;;4990769;28;20262;-56
2021/04/07 12:28:41;;;;;;;27.45;3.15;;;;;;;;;;4984487;28;20496;-55
2021/04/07 12:31:09;;;;;;;16.27;3.17;;;;;;;;;;4989682;28;20536;-56
2021/04/07 12:33:35;;;;;;;16.08;3.15;;;;;;;;;;4988407;28;21626;-56
2021/04/07 12:36:01;;;;;;;21.27;3.13;;;;;;;;;;4991177;28;20041;-54
2021/04/07 12:38:30;;;;;;;21.55;3.13;;;;;;;;;;4998446;28;20041;-56
2021/04/07 12:40:57;;;;;;;22.02;3.08;;;;;;;;;;5002081;28;20145;-52
2021/04/07 12:43:23;;;;;;;20.00;4.05;;;;;;;;;;5001772;28;20256;-57
2021/04/07 12:45:49;;;;;;;27.38;2.78;;;;;;;;;;5002640;28;20052;-55
2021/04/07 12:48:15;;;;;;;18.42;2.95;;;;;;;;;;5000327;28;20045;-56
2021/04/07 12:50:42;;;;;;;20.35;4.10;;;;;;;;;;5001692;28;20029;-54
2021/04/07 12:53:08;;;;;;;17.10;3.40;;;;;;;;;;5003375;28;20152;-56
2021/04/07 12:55:34;;;;;;;13.27;2.83;;;;;;;;;;5002925;28;20482;-57
2021/04/07 12:58:00;;;;;;;22.85;4.35;;;;;;;;;;5002931;28;20041;-51
2021/04/07 13:00:29;;;;;;;19.38;3.80;;;;;;;;;;5003948;28;20385;-57
2021/04/07 13:02:55;;;;;;;22.48;3.75;;;;;;;;;;4989187;28;20057;-56
2021/04/07 13:05:21;;;;;;;15.73;3.05;;;;;;;;;;4987748;28;20056;-56
2021/04/07 13:07:47;;;;;;;18.23;2.72;;;;;;;;;;4995111;28;20038;-58
2021/04/07 13:10:17;;;;;;;9.98;2.30;;;;;;;;;;5001706;28;20090;-55
2021/04/07 13:12:43;;;;;;;20.95;2.47;;;;;;;;;;5000397;28;20029;-58
2021/04/07 13:15:09;;;;;;;18.08;3.25;;;;;;;;;;5003431;28;20041;-54
2021/04/07 13:17:35;;;;;;;18.33;2.55;;;;;;;;;;5001516;28;20042;-56
2021/04/07 13:20:02;;;;;;;25.30;4.20;;;;;;;;;;4996934;28;20038;-56
2021/04/07 13:22:28;;;;;;;16.40;3.20;;;;;;;;;;4999619;28;20922;-57
2021/04/07 13:24:57;;;;;;;19.75;3.03;;;;;;;;;;5015740;28;20033;-56
2021/04/07 13:27:23;;;;;;;15.32;2.92;;;;;;;;;;5017888;28;20057;-55
2021/04/07 13:29:49;;;;;;;21.38;3.40;;;;;;;;;;5015692;28;20065;-55
2021/04/07 13:32:20;;;;;;;18.25;2.95;;;;;;;;;;4997777;28;20030;-58
2021/04/07 13:39:48;;;;;;;27.10;3.40;;;;;;;;;;5001197;28;20076;-58
2021/04/07 13:44:43;;;;;;;20.55;2.90;;;;;;;;;;4991198;28;20115;-57
2021/04/07 13:47:12;;;;;;;14.32;3.03;;;;;;;;;;4991026;28;20041;-56
2021/04/07 13:49:38;;;;;;;13.90;2.88;;;;;;;;;;4990410;28;20581;-59
2021/04/07 13:52:04;;;;;;;18.58;2.65;;;;;;;;;;4988691;28;20057;-59
2021/04/07 13:54:29;;;;;;;20.33;2.80;;;;;;;;;;4988844;28;20892;-58
2021/04/07 13:59:25;;;;;;;15.77;3.38;;;;;;;;;;4988274;28;20037;-56
2021/04/07 14:01:52;;;;;;;22.55;3.47;;;;;;;;;;4988543;28;20132;-58
2021/04/07 14:04:17;;;;;;;15.05;2.65;;;;;;;;;;4995254;28;20061;-56
2021/04/07 14:06:43;;;;;;;12.70;2.03;;;;;;;;;;4999755;28;20052;-57
2021/04/07 14:09:09;;;;;;;19.50;2.85;;;;;;;;;;5003637;28;20042;-57
2021/04/07 14:11:35;;;;;;;10.55;2.97;;;;;;;;;;4997960;28;20612;-56
2021/04/07 14:14:01;;;;;;;13.82;3.03;;;;;;;;;;4986887;28;20214;-58
2021/04/07 14:16:27;;;;;;;13.90;2.28;;;;;;;;;;4985124;28;20037;-55
2021/04/07 14:18:53;;;;;;;19.17;2.50;;;;;;;;;;4988287;28;20792;-56
2021/04/07 14:21:19;;;;;;;17.80;2.25;;;;;;;;;;4987662;28;20060;-56
2021/04/07 14:23:45;;;;;;;20.15;2.38;;;;;;;;;;4985637;28;20854;-57
2021/04/07 14:26:12;;;;;;;22.02;2.22;;;;;;;;;;4982988;28;20486;-57
2021/04/07 14:28:38;;;;;;;11.52;2.20;;;;;;;;;;4982412;28;20133;-54
2021/04/07 14:31:05;;;;;;;13.98;2.50;;;;;;;;;;4986373;28;20409;-57
2021/04/07 14:33:30;;;;;;;21.88;2.95;;;;;;;;;;4985408;28;20038;-56
2021/04/07 14:35:56;;;;;;;17.73;2.63;;;;;;;;;;4984271;28;20048;-57
2021/04/07 14:38:23;;;;;;;25.67;2.92;;;;;;;;;;4984715;28;20042;-58
2021/04/07 14:40:49;;;;;;;12.30;2.30;;;;;;;;;;4983427;28;20424;-55
2021/04/07 14:43:15;;;;;;;13.95;2.70;;;;;;;;;;4983614;28;20042;-55
2021/04/07 14:45:46;;;;;;;17.60;3.25;;;;;;;;;;4984785;28;20505;-57
2021/04/07 14:48:13;;;;;;;12.85;2.60;;;;;;;;;;4986302;28;20037;-57